createdAt,value
2023-08-31T00:00:02.472Z,15.10
2023-08-31T00:02:49.033Z,15.10
2023-08-31T00:05:32.412Z,15.10
2023-08-31T00:08:14.960Z,15.10
2023-08-31T00:10:59.062Z,15.00
2023-08-31T00:13:41.366Z,15.00
2023-08-31T00:16:27.801Z,15.00
2023-08-31T00:19:09.930Z,15.00
2023-08-31T00:21:52.528Z,15.00
2023-08-31T00:24:38.014Z,15.00
2023-08-31T00:27:22.690Z,15.00
2023-08-31T00:30:12.976Z,15.00
2023-08-31T00:32:56.592Z,15.00
2023-08-31T00:35:39.013Z,14.90
2023-08-31T00:38:21.782Z,15.00
2023-08-31T00:41:04.103Z,14.90
2023-08-31T00:43:46.669Z,14.90
2023-08-31T00:46:28.997Z,14.90
2023-08-31T00:49:12.042Z,14.90
2023-08-31T00:51:54.458Z,14.90
2023-08-31T00:54:37.986Z,14.90
2023-08-31T00:57:20.810Z,14.80
2023-08-31T01:00:07.850Z,14.80
2023-08-31T01:02:59.199Z,14.80
2023-08-31T01:06:01.576Z,14.80
2023-08-31T01:09:15.626Z,14.80
2023-08-31T01:12:04.572Z,14.80
2023-08-31T01:14:55.520Z,14.80
2023-08-31T01:17:49.554Z,14.70
2023-08-31T01:20:42.541Z,14.70
2023-08-31T01:23:30.401Z,14.70
2023-08-31T01:26:21.336Z,14.60
2023-08-31T01:29:06.781Z,14.70
2023-08-31T01:31:49.038Z,14.70
2023-08-31T01:34:32.049Z,14.70
2023-08-31T01:37:22.799Z,14.60
2023-08-31T01:40:12.059Z,14.60
2023-08-31T01:42:56.228Z,14.60
2023-08-31T01:45:40.287Z,14.60
2023-08-31T01:48:22.569Z,14.60
2023-08-31T01:51:05.889Z,14.60
2023-08-31T01:53:49.211Z,14.60
2023-08-31T01:56:31.741Z,14.60
2023-08-31T01:59:14.735Z,14.50
2023-08-31T02:01:59.338Z,14.50
2023-08-31T02:04:41.641Z,14.50
2023-08-31T02:07:24.190Z,14.50
2023-08-31T02:10:07.453Z,14.50
2023-08-31T02:12:51.104Z,14.50
2023-08-31T02:15:33.414Z,14.50
2023-08-31T02:18:15.993Z,14.40
2023-08-31T02:20:58.931Z,14.40
2023-08-31T02:23:41.532Z,14.40
2023-08-31T02:26:23.925Z,14.40
2023-08-31T02:29:06.580Z,14.30
2023-08-31T02:31:49.454Z,14.40
2023-08-31T02:34:31.954Z,14.40
2023-08-31T02:37:14.344Z,14.40
2023-08-31T02:39:57.233Z,14.40
2023-08-31T02:42:39.608Z,14.40
2023-08-31T02:45:23.928Z,14.40
2023-08-31T02:48:11.411Z,14.30
2023-08-31T02:50:53.991Z,14.40
2023-08-31T02:53:36.256Z,14.40
2023-08-31T02:56:18.771Z,14.40
2023-08-31T02:59:01.124Z,14.30
2023-08-31T03:01:47.375Z,14.30
2023-08-31T03:04:30.500Z,14.20
2023-08-31T03:07:14.939Z,14.20
2023-08-31T03:09:57.572Z,14.20
2023-08-31T03:12:40.154Z,14.10
2023-08-31T03:15:22.963Z,14.10
2023-08-31T03:18:06.746Z,14.10
2023-08-31T03:20:49.194Z,14.10
2023-08-31T03:23:32.407Z,14.10
2023-08-31T03:26:14.639Z,14.10
2023-08-31T03:28:57.303Z,14.10
2023-08-31T03:31:39.625Z,14.10
2023-08-31T03:34:22.345Z,14.10
2023-08-31T03:37:04.830Z,14.10
2023-08-31T03:39:51.903Z,14.10
2023-08-31T03:42:36.249Z,14.10
2023-08-31T03:45:19.468Z,14.10
2023-08-31T03:48:02.683Z,14.10
2023-08-31T03:50:49.600Z,14.10
2023-08-31T03:53:31.846Z,14.10
2023-08-31T03:56:15.530Z,14.10
2023-08-31T03:58:58.551Z,14.10
2023-08-31T04:01:41.371Z,14.00
2023-08-31T04:04:23.640Z,14.00
2023-08-31T04:07:07.512Z,14.00
2023-08-31T04:09:49.953Z,14.00
2023-08-31T04:12:32.941Z,14.00
2023-08-31T04:15:15.469Z,14.00
2023-08-31T04:17:58.420Z,14.10
2023-08-31T04:20:52.223Z,14.10
2023-08-31T04:23:34.878Z,14.00
2023-08-31T04:26:18.642Z,14.00
2023-08-31T04:29:01.384Z,14.10
2023-08-31T04:31:43.665Z,14.10
2023-08-31T04:34:26.896Z,14.20
2023-08-31T04:37:09.179Z,14.20
2023-08-31T04:39:52.081Z,14.10
2023-08-31T04:42:35.405Z,14.20
2023-08-31T04:45:18.418Z,14.20
2023-08-31T04:48:00.866Z,14.20
2023-08-31T04:50:43.683Z,14.20
2023-08-31T04:53:26.325Z,14.30
2023-08-31T04:56:08.901Z,14.20
2023-08-31T04:58:51.324Z,14.20
2023-08-31T05:01:34.013Z,14.30
2023-08-31T05:04:16.408Z,14.40
2023-08-31T05:06:59.041Z,14.50
2023-08-31T05:09:41.420Z,14.60
2023-08-31T05:12:24.128Z,14.70
2023-08-31T05:15:07.050Z,14.80
2023-08-31T05:17:49.869Z,14.90
2023-08-31T05:20:32.179Z,15.10
2023-08-31T05:23:14.965Z,15.20
2023-08-31T05:26:01.321Z,15.20
2023-08-31T05:28:44.494Z,15.30
2023-08-31T05:31:26.969Z,15.40
2023-08-31T05:34:11.418Z,15.40
2023-08-31T05:36:53.671Z,15.40
2023-08-31T05:39:36.330Z,15.80
2023-08-31T05:42:19.286Z,16.30
2023-08-31T05:45:01.880Z,16.50
2023-08-31T05:47:44.344Z,16.90
2023-08-31T05:50:27.563Z,17.40
2023-08-31T05:53:10.503Z,17.90
2023-08-31T05:55:55.492Z,18.10
2023-08-31T05:58:38.215Z,18.00
2023-08-31T06:01:20.933Z,17.70
2023-08-31T06:04:04.626Z,17.60
2023-08-31T06:06:47.988Z,17.40
2023-08-31T06:09:30.462Z,17.40
2023-08-31T06:12:13.126Z,17.30
2023-08-31T06:14:55.393Z,17.60
2023-08-31T06:17:38.030Z,17.70
2023-08-31T06:20:21.017Z,17.90
2023-08-31T06:23:04.050Z,17.80
2023-08-31T06:25:47.257Z,17.90
2023-08-31T06:28:30.121Z,18.10
2023-08-31T06:31:12.571Z,18.50
2023-08-31T06:33:55.295Z,18.60
2023-08-31T06:36:37.674Z,18.50
2023-08-31T06:39:20.413Z,18.40
2023-08-31T06:42:03.384Z,18.50
2023-08-31T06:44:47.546Z,18.50
2023-08-31T06:47:29.920Z,18.70
2023-08-31T06:50:12.620Z,19.40
2023-08-31T06:52:55.130Z,19.90
2023-08-31T06:55:37.809Z,20.20
2023-08-31T06:58:20.084Z,20.20
2023-08-31T07:01:06.756Z,20.30
2023-08-31T07:03:49.307Z,20.40
2023-08-31T07:06:35.015Z,20.30
2023-08-31T07:09:17.351Z,20.20
2023-08-31T07:12:00.086Z,20.20
2023-08-31T07:14:42.436Z,20.10
2023-08-31T07:17:25.674Z,20.20
2023-08-31T07:20:08.990Z,20.00
2023-08-31T07:22:51.629Z,19.90
2023-08-31T07:25:34.175Z,19.90
2023-08-31T07:28:16.738Z,20.20
2023-08-31T07:31:06.427Z,20.40
2023-08-31T07:33:49.392Z,20.50
2023-08-31T07:36:31.864Z,20.40
2023-08-31T07:39:14.493Z,20.10
2023-08-31T07:41:57.198Z,20.10
2023-08-31T07:44:39.768Z,20.30
2023-08-31T07:47:22.318Z,20.40
2023-08-31T07:50:05.341Z,20.40
2023-08-31T07:52:47.625Z,20.40
2023-08-31T07:55:30.424Z,20.50
2023-08-31T07:58:12.772Z,20.70
2023-08-31T08:00:58.970Z,20.80
2023-08-31T08:03:41.347Z,20.90
2023-08-31T08:06:24.004Z,20.70
2023-08-31T08:09:06.852Z,20.80
2023-08-31T08:11:49.485Z,20.60
2023-08-31T08:14:31.858Z,20.60
2023-08-31T08:17:14.419Z,20.60
2023-08-31T08:19:57.134Z,20.60
2023-08-31T08:22:39.759Z,20.40
2023-08-31T08:25:22.558Z,20.40
2023-08-31T08:28:05.467Z,20.60
2023-08-31T08:30:47.801Z,20.80
2023-08-31T08:33:31.671Z,20.90
2023-08-31T08:36:13.998Z,20.90
2023-08-31T08:38:56.612Z,20.90
2023-08-31T08:41:40.047Z,20.90
2023-08-31T08:44:25.455Z,20.80
2023-08-31T08:47:08.180Z,20.80
2023-08-31T08:49:51.656Z,20.90
2023-08-31T08:52:34.329Z,21.20
2023-08-31T08:55:18.381Z,21.40
2023-08-31T08:58:01.462Z,21.40
2023-08-31T09:00:44.983Z,21.40
2023-08-31T09:03:29.816Z,21.40
2023-08-31T09:06:12.512Z,21.50
2023-08-31T09:08:58.198Z,21.50
2023-08-31T09:11:40.853Z,21.60
2023-08-31T09:14:23.527Z,21.70
2023-08-31T09:17:07.523Z,21.90
2023-08-31T09:20:02.559Z,22.20
2023-08-31T09:22:46.048Z,22.20
2023-08-31T09:25:28.319Z,22.10
2023-08-31T09:28:12.706Z,22.30
2023-08-31T09:31:10.027Z,22.20
2023-08-31T09:33:53.473Z,22.30
2023-08-31T09:36:35.721Z,22.10
2023-08-31T09:39:18.503Z,21.90
2023-08-31T09:42:04.359Z,21.70
2023-08-31T09:44:50.344Z,21.80
2023-08-31T09:47:33.022Z,21.70
2023-08-31T09:50:15.837Z,21.80
2023-08-31T09:53:05.268Z,21.90
2023-08-31T09:55:51.757Z,21.80
2023-08-31T09:58:34.517Z,21.60
2023-08-31T10:01:28.737Z,21.50
2023-08-31T10:04:13.669Z,21.50
2023-08-31T10:06:56.442Z,21.50
2023-08-31T10:09:39.312Z,21.60
2023-08-31T10:12:23.250Z,21.70
2023-08-31T10:15:06.920Z,21.80
2023-08-31T10:17:49.792Z,21.90
2023-08-31T10:20:33.152Z,22.20
2023-08-31T10:23:16.245Z,22.30
2023-08-31T10:25:58.834Z,22.40
2023-08-31T10:28:43.613Z,22.60
2023-08-31T10:31:33.622Z,22.80
2023-08-31T10:34:16.726Z,22.60
2023-08-31T10:37:08.725Z,22.50
2023-08-31T10:40:13.180Z,22.20
2023-08-31T10:43:16.486Z,22.10
2023-08-31T10:46:00.085Z,22.20
2023-08-31T10:48:58.548Z,22.40
2023-08-31T10:51:59.436Z,22.50
2023-08-31T10:54:41.790Z,22.70
2023-08-31T10:57:36.441Z,22.80
2023-08-31T11:00:49.740Z,22.70
2023-08-31T11:03:32.654Z,22.80
2023-08-31T11:06:15.130Z,22.80
2023-08-31T11:08:57.900Z,22.60
2023-08-31T11:11:40.238Z,22.50
2023-08-31T11:14:23.016Z,22.00
2023-08-31T11:17:07.610Z,21.90
2023-08-31T11:19:50.623Z,21.90
2023-08-31T11:22:34.172Z,21.60
2023-08-31T11:25:18.278Z,20.90
2023-08-31T11:28:02.503Z,20.60
2023-08-31T11:30:47.805Z,20.40
2023-08-31T11:33:34.435Z,20.30
2023-08-31T11:36:20.045Z,20.40
2023-08-31T11:39:05.009Z,20.70
2023-08-31T11:41:48.802Z,21.10
2023-08-31T11:44:31.912Z,21.10
2023-08-31T11:47:15.537Z,21.10
2023-08-31T11:49:58.033Z,20.90
2023-08-31T11:52:41.223Z,21.00
2023-08-31T11:55:26.649Z,20.80
2023-08-31T11:58:09.948Z,20.90
2023-08-31T12:01:00.333Z,20.80
2023-08-31T12:03:50.445Z,20.70
2023-08-31T12:06:33.498Z,20.90
2023-08-31T12:09:16.238Z,20.70
2023-08-31T12:11:58.946Z,20.20
2023-08-31T12:14:41.742Z,19.00
2023-08-31T12:17:24.474Z,18.50
2023-08-31T12:20:08.465Z,18.40
2023-08-31T12:22:50.756Z,18.20
2023-08-31T12:25:33.400Z,17.90
2023-08-31T12:28:16.296Z,17.50
2023-08-31T12:30:59.081Z,17.10
2023-08-31T12:33:41.613Z,16.90
2023-08-31T12:36:24.292Z,16.80
2023-08-31T12:39:08.029Z,16.90
2023-08-31T12:41:50.982Z,16.80
2023-08-31T12:44:33.252Z,16.80
2023-08-31T12:47:17.189Z,16.80
2023-08-31T12:50:00.094Z,16.90
2023-08-31T12:52:49.757Z,16.80
2023-08-31T12:55:32.268Z,16.70
2023-08-31T12:58:15.008Z,16.60
2023-08-31T13:01:00.822Z,16.50
2023-08-31T13:03:43.558Z,16.40
2023-08-31T13:06:26.608Z,16.30
2023-08-31T13:09:10.130Z,16.40
2023-08-31T13:11:53.853Z,16.50
2023-08-31T13:14:36.574Z,16.60
2023-08-31T13:17:18.968Z,16.80
2023-08-31T13:20:02.524Z,16.90
2023-08-31T13:22:45.126Z,16.90
2023-08-31T13:25:27.887Z,16.80
2023-08-31T13:28:11.080Z,16.70
2023-08-31T13:30:59.132Z,16.70
2023-08-31T13:33:41.683Z,17.00
2023-08-31T13:36:24.268Z,17.30
2023-08-31T13:39:08.280Z,17.40
2023-08-31T13:41:52.951Z,17.20
2023-08-31T13:44:36.438Z,17.20
2023-08-31T13:47:19.425Z,17.50
2023-08-31T13:50:02.686Z,17.60
2023-08-31T13:52:46.258Z,17.70
2023-08-31T13:55:28.754Z,17.90
2023-08-31T13:58:12.115Z,17.90
2023-08-31T14:00:54.602Z,17.80
2023-08-31T14:03:37.381Z,17.80
2023-08-31T14:06:20.113Z,17.90
2023-08-31T14:09:02.883Z,17.90
2023-08-31T14:11:45.220Z,17.90
2023-08-31T14:14:28.436Z,17.70
2023-08-31T14:17:10.827Z,17.80
2023-08-31T14:19:53.454Z,17.90
2023-08-31T14:22:36.433Z,17.90
2023-08-31T14:25:19.507Z,18.00
2023-08-31T14:28:01.942Z,17.90
2023-08-31T14:30:44.679Z,17.90
2023-08-31T14:33:27.112Z,17.90
2023-08-31T14:36:09.910Z,18.00
2023-08-31T14:38:52.404Z,18.00
2023-08-31T14:41:35.159Z,17.90
2023-08-31T14:44:17.574Z,17.90
2023-08-31T14:47:00.356Z,17.90
2023-08-31T14:49:42.960Z,17.90
2023-08-31T14:52:26.144Z,17.80
2023-08-31T14:55:11.770Z,17.70
2023-08-31T14:57:54.503Z,17.70
2023-08-31T15:00:36.912Z,17.70
2023-08-31T15:03:22.133Z,17.80
2023-08-31T15:06:04.785Z,17.90
2023-08-31T15:08:47.481Z,17.80
2023-08-31T15:11:30.107Z,17.70
2023-08-31T15:14:13.190Z,17.70
2023-08-31T15:16:55.663Z,17.70
2023-08-31T15:19:38.738Z,17.80
2023-08-31T15:22:21.088Z,17.80
2023-08-31T15:25:05.907Z,17.90
2023-08-31T15:27:48.217Z,18.00
2023-08-31T15:30:30.968Z,18.10
2023-08-31T15:33:13.555Z,18.00
2023-08-31T15:36:09.604Z,18.00
2023-08-31T15:38:51.969Z,17.90
2023-08-31T15:41:39.945Z,17.80
2023-08-31T15:44:22.392Z,17.80
2023-08-31T15:47:05.145Z,17.80
2023-08-31T15:49:47.578Z,17.70
2023-08-31T15:52:30.204Z,17.70
2023-08-31T15:55:12.668Z,17.60
2023-08-31T15:57:55.300Z,17.60
2023-08-31T16:00:37.711Z,17.50
2023-08-31T16:03:20.590Z,17.40
2023-08-31T16:06:05.614Z,17.50
2023-08-31T16:08:48.246Z,17.50
2023-08-31T16:11:30.668Z,17.50
2023-08-31T16:14:13.522Z,17.50
2023-08-31T16:16:56.405Z,17.50
2023-08-31T16:19:39.110Z,17.40
2023-08-31T16:22:21.624Z,17.30
2023-08-31T16:25:05.475Z,17.30
2023-08-31T16:27:47.819Z,17.20
2023-08-31T16:30:30.740Z,17.20
2023-08-31T16:33:13.188Z,17.10
2023-08-31T16:36:06.408Z,17.00
2023-08-31T16:38:48.888Z,17.00
2023-08-31T16:41:32.763Z,17.00
2023-08-31T16:44:15.125Z,16.90
2023-08-31T16:46:58.507Z,16.90
2023-08-31T16:49:43.531Z,16.90
2023-08-31T16:52:26.672Z,16.90
2023-08-31T16:55:09.367Z,16.80
2023-08-31T16:57:52.002Z,16.80
2023-08-31T17:00:35.004Z,16.60
2023-08-31T17:03:17.769Z,16.60
2023-08-31T17:06:01.374Z,16.50
2023-08-31T17:08:44.123Z,16.50
2023-08-31T17:11:26.643Z,16.40
2023-08-31T17:14:09.598Z,16.30
2023-08-31T17:16:52.012Z,16.20
2023-08-31T17:19:34.737Z,16.20
2023-08-31T17:22:17.107Z,16.20
2023-08-31T17:25:01.701Z,16.10
2023-08-31T17:27:44.422Z,16.10
2023-08-31T17:30:27.220Z,16.00
2023-08-31T17:33:09.658Z,15.90
2023-08-31T17:35:55.201Z,15.70
2023-08-31T17:38:40.038Z,15.60
2023-08-31T17:41:23.235Z,15.60
2023-08-31T17:44:05.888Z,15.50
2023-08-31T17:46:48.609Z,15.40
2023-08-31T17:49:30.988Z,15.30
2023-08-31T17:52:13.956Z,15.20
2023-08-31T17:54:56.510Z,15.10
2023-08-31T17:57:40.005Z,15.00
2023-08-31T18:00:22.464Z,14.90
2023-08-31T18:03:06.100Z,14.80
2023-08-31T18:05:54.608Z,14.70
2023-08-31T18:08:37.714Z,14.70
2023-08-31T18:11:20.229Z,14.60
2023-08-31T18:14:04.822Z,14.50
2023-08-31T18:16:47.250Z,14.50
2023-08-31T18:19:31.762Z,14.40
2023-08-31T18:22:14.275Z,14.40
2023-08-31T18:24:57.774Z,14.30
2023-08-31T18:27:40.923Z,14.30
2023-08-31T18:30:23.704Z,14.30
2023-08-31T18:33:06.241Z,14.30
2023-08-31T18:35:53.502Z,14.20
2023-08-31T18:38:36.335Z,14.20
2023-08-31T18:41:19.350Z,14.10
2023-08-31T18:44:02.666Z,14.00
2023-08-31T18:46:45.347Z,13.90
2023-08-31T18:49:27.713Z,13.80
2023-08-31T18:52:11.253Z,13.80
2023-08-31T18:54:53.586Z,13.80
2023-08-31T18:57:36.219Z,13.70
2023-08-31T19:00:19.077Z,13.60
2023-08-31T19:03:02.190Z,13.60
2023-08-31T19:05:44.647Z,13.50
2023-08-31T19:08:27.441Z,13.50
2023-08-31T19:11:14.415Z,13.50
2023-08-31T19:13:57.453Z,13.40
2023-08-31T19:16:40.236Z,13.40
2023-08-31T19:19:23.074Z,13.40
2023-08-31T19:22:05.485Z,13.50
2023-08-31T19:24:48.912Z,13.60
2023-08-31T19:27:31.610Z,13.80
2023-08-31T19:30:14.827Z,13.80
2023-08-31T19:32:58.498Z,13.90
2023-08-31T19:35:57.572Z,13.90
2023-08-31T19:38:41.269Z,13.90
2023-08-31T19:41:26.184Z,13.80
2023-08-31T19:44:08.722Z,13.70
2023-08-31T19:46:55.600Z,13.70
2023-08-31T19:49:41.513Z,13.70
2023-08-31T19:52:24.455Z,13.70
2023-08-31T19:55:07.261Z,13.60
2023-08-31T19:57:50.069Z,13.60
2023-08-31T20:00:33.199Z,13.50
2023-08-31T20:03:15.940Z,13.50
2023-08-31T20:05:58.698Z,13.50
2023-08-31T20:08:41.521Z,13.50
2023-08-31T20:11:24.120Z,13.50
2023-08-31T20:14:07.046Z,13.60
2023-08-31T20:16:50.085Z,13.60
2023-08-31T20:19:33.017Z,13.60
2023-08-31T20:22:16.454Z,13.60
2023-08-31T20:24:59.127Z,13.60
2023-08-31T20:27:41.499Z,13.60
2023-08-31T20:30:28.472Z,13.50
2023-08-31T20:33:12.305Z,13.50
2023-08-31T20:36:09.472Z,13.40
2023-08-31T20:38:52.297Z,13.30
2023-08-31T20:41:35.904Z,13.20
2023-08-31T20:44:18.377Z,13.20
2023-08-31T20:47:01.126Z,13.10
2023-08-31T20:49:44.243Z,13.00
2023-08-31T20:52:27.082Z,12.90
2023-08-31T20:55:09.947Z,12.80
2023-08-31T20:57:54.713Z,12.70
2023-08-31T21:00:38.374Z,12.60
2023-08-31T21:03:21.236Z,12.50
2023-08-31T21:06:04.682Z,12.50
2023-08-31T21:08:47.466Z,12.40
2023-08-31T21:11:29.924Z,12.40
2023-08-31T21:14:12.746Z,12.30
2023-08-31T21:16:55.137Z,12.30
2023-08-31T21:19:38.379Z,12.30
2023-08-31T21:22:20.868Z,12.20
2023-08-31T21:25:04.798Z,12.20
2023-08-31T21:27:48.419Z,12.20
2023-08-31T21:30:36.511Z,12.20
2023-08-31T21:33:19.115Z,12.10
2023-08-31T21:36:02.490Z,12.10
2023-08-31T21:38:45.159Z,12.10
2023-08-31T21:41:27.866Z,12.10
2023-08-31T21:44:10.259Z,12.10
2023-08-31T21:46:53.009Z,12.00
2023-08-31T21:49:35.780Z,12.00
2023-08-31T21:52:18.512Z,12.00
2023-08-31T21:55:01.008Z,11.90
2023-08-31T21:57:45.632Z,11.90
2023-08-31T22:00:28.109Z,11.90
2023-08-31T22:03:11.249Z,11.90
2023-08-31T22:05:54.058Z,11.90
2023-08-31T22:08:37.925Z,11.90
2023-08-31T22:11:23.526Z,11.90
2023-08-31T22:14:06.476Z,11.80
2023-08-31T22:16:49.094Z,11.80
2023-08-31T22:19:31.975Z,11.80
2023-08-31T22:22:14.707Z,11.70
2023-08-31T22:24:57.578Z,11.70
2023-08-31T22:27:40.150Z,11.70
2023-08-31T22:30:23.051Z,11.70
2023-08-31T22:33:06.247Z,11.60
2023-08-31T22:35:48.949Z,11.60
2023-08-31T22:38:31.416Z,11.60
2023-08-31T22:41:14.267Z,11.50
2023-08-31T22:43:57.391Z,11.50
2023-08-31T22:46:40.037Z,11.50
2023-08-31T22:49:22.444Z,11.50
2023-08-31T22:52:09.894Z,11.40
2023-08-31T22:54:56.945Z,11.40
2023-08-31T22:57:39.618Z,11.40
2023-08-31T23:00:22.367Z,11.40
2023-08-31T23:03:05.398Z,11.30
2023-08-31T23:05:48.172Z,11.30
2023-08-31T23:08:30.851Z,11.30
2023-08-31T23:11:13.234Z,11.30
2023-08-31T23:13:55.862Z,11.30
2023-08-31T23:16:38.393Z,11.30
2023-08-31T23:19:21.039Z,11.30
2023-08-31T23:22:03.420Z,11.40
2023-08-31T23:24:46.094Z,11.40
2023-08-31T23:27:32.118Z,11.50
2023-08-31T23:30:14.733Z,11.50
2023-08-31T23:32:57.146Z,11.60
2023-08-31T23:35:39.883Z,11.60
2023-08-31T23:38:26.436Z,11.70
2023-08-31T23:41:09.348Z,11.70
2023-08-31T23:43:51.731Z,11.70
2023-08-31T23:46:34.468Z,11.70
2023-08-31T23:49:16.830Z,11.60
2023-08-31T23:51:59.465Z,11.50
2023-08-31T23:54:41.808Z,11.50
2023-08-31T23:57:24.503Z,11.50
